Aérodrome :
LOGIN :

S'inscrire | Disclaimer

   EN    FR    IT 

 










Légende :    VFR   VFR Marginal   IFR   IFR Intensif   IFR Très Intensif
Visi : 
Plafond : 
>= 8 km
>= 3000ft
5 à 8 km
1000 à 3000 ft
1500m à 5 km
500 à 1000 ft
800 à 1500m
200 à 500 ft
< 800m
< 200 ft
Symboles :   Orages  Brouillard  Fortes neiges  Fortes précipitations  Vent > 20 kt
SIGMETs :   Divers  Orages  Givrage  Turbulence  Onde Orograph.  Cendres Volcan.







- Altitude de l'aérodrome : 256 ft
- Code IATA : CFR
- Voir les cartes d'approche


LFRK - Caen

DERNIER METAR :
  • 141700Z AUTO 12004KT 9999 OVC030 13/11 Q1021 BECMG BKN007

METARs EXPIRÉS :
  • 141630Z AUTO 12005KT 9999 OVC030 13/11 Q1021 BECMG BKN007
  • 141600Z AUTO 14004KT 9999 OVC029 14/11 Q1021 BECMG BKN014
  • 141530Z AUTO 15005KT 9999 OVC026 15/11 Q1021 BECMG BKN014
  • 141500Z AUTO 16006KT 9999 OVC023 15/12 Q1021 BECMG BKN014
  • 141430Z AUTO 17010KT 9999 OVC023 16/12 Q1021 BECMG BKN014

TAF TAF LFRK
Valide du 14 à 15h jusqu'au 15 à 00h UTC


141400Z 1415/1424 16008KT 9999 BKN014
BECMG 1418/1420 BKN007
BECMG 1421/1423 3000 BR BKN003
Météo : +33 2 31 26 68 11
Pas de NOTAMs connus pour ce terrain.



MET'MAP, la Météo Aéronautique d'un coup d'oeil ! - Copyright ORBIFLY Décembre 2007 - Disclaimer

ORBIFLY MET'MAP TEAM :

Programmation & Développement : Alexandra Zaïnal
Conception & Développement : Baudouin d'Aumeries
Co-Programmation & Développement : Marc-Olivier Méhu
Soutien technique & logistique : Manuel Goepfert

Contact : metmap@orbifly.com




SOURCES & CREDITS :

   NOAA